Time;durP1;ratioP1;P1;durP2;ratioP2;P2;SDS_P1;SDS_P2;PMS_P1;PMS_P2;Temp;Humidity;BMP_temperature;BMP_pressure;BME280_temperature;BME280_humidity;BME280_pressure;Samples;Min_cycle;Max_cycle;Signal;HPM_P1;HPM_P2
2022/06/27 00:00:00;;;;;;;9.15;3.53;;;;;;;;;;6184299;28;20062;-75
2022/06/27 00:03:03;;;;;;;8.00;2.70;;;;;;;;;;6176293;28;20047;-75
2022/06/27 00:06:05;;;;;;;6.47;2.63;;;;;;;;;;6169171;28;20059;-75
2022/06/27 00:09:07;;;;;;;7.85;2.88;;;;;;;;;;6158270;28;20226;-75
2022/06/27 00:12:10;;;;;;;12.32;2.88;;;;;;;;;;6163339;28;20058;-75
2022/06/27 00:15:12;;;;;;;4.95;2.38;;;;;;;;;;6158355;28;20043;-75
2022/06/27 00:18:15;;;;;;;6.82;2.47;;;;;;;;;;6157821;28;20233;-75
2022/06/27 00:21:17;;;;;;;6.57;2.78;;;;;;;;;;6177200;28;20051;-75
2022/06/27 00:24:35;;;;;;;9.07;2.93;;;;;;;;;;6183441;28;20046;-75
2022/06/27 00:27:40;;;;;;;8.43;2.60;;;;;;;;;;6183829;28;20069;-75
2022/06/27 00:30:42;;;;;;;10.43;2.75;;;;;;;;;;6184183;28;20066;-75
2022/06/27 00:33:45;;;;;;;7.20;2.30;;;;;;;;;;6181771;28;20045;-75
2022/06/27 00:36:49;;;;;;;8.60;3.33;;;;;;;;;;6174726;28;20126;-75
2022/06/27 00:39:51;;;;;;;11.05;3.08;;;;;;;;;;6182052;28;20353;-75
2022/06/27 00:42:53;;;;;;;7.10;2.15;;;;;;;;;;6173055;28;20071;-75
2022/06/27 00:45:55;;;;;;;8.27;2.72;;;;;;;;;;6158141;28;20047;-75
2022/06/27 00:48:59;;;;;;;8.67;2.87;;;;;;;;;;6153504;28;20071;-75
2022/06/27 00:52:04;;;;;;;5.47;2.00;;;;;;;;;;6156099;28;20058;-74
2022/06/27 00:55:07;;;;;;;7.18;2.28;;;;;;;;;;6161128;28;20099;-75
2022/06/27 00:58:09;;;;;;;10.13;2.45;;;;;;;;;;6160554;28;20050;-74
2022/06/27 01:01:11;;;;;;;9.73;2.80;;;;;;;;;;6173003;28;20285;-75
2022/06/27 01:04:15;;;;;;;4.95;2.33;;;;;;;;;;6153705;28;20055;-75
2022/06/27 01:07:17;;;;;;;7.88;2.35;;;;;;;;;;6155373;28;20334;-75
2022/06/27 01:10:19;;;;;;;11.93;2.37;;;;;;;;;;6149863;28;20063;-75
2022/06/27 01:13:22;;;;;;;9.00;2.58;;;;;;;;;;6153740;28;20064;-75
2022/06/27 01:16:24;;;;;;;8.43;2.38;;;;;;;;;;6151024;28;20781;-75
2022/06/27 01:19:27;;;;;;;7.20;2.50;;;;;;;;;;6155033;28;20047;-74
2022/06/27 01:22:41;;;;;;;7.63;2.28;;;;;;;;;;6154014;28;20047;-75
2022/06/27 01:25:43;;;;;;;6.05;2.35;;;;;;;;;;6154601;28;20062;-76
2022/06/27 01:28:48;;;;;;;7.20;2.60;;;;;;;;;;6162578;28;20318;-74
2022/06/27 01:31:50;;;;;;;4.63;2.25;;;;;;;;;;6159867;28;20053;-75
2022/06/27 01:34:52;;;;;;;10.13;2.58;;;;;;;;;;6158444;28;20066;-75
2022/06/27 01:37:56;;;;;;;5.95;2.25;;;;;;;;;;6177861;28;20054;-75
2022/06/27 01:41:16;;;;;;;8.18;2.50;;;;;;;;;;6179424;28;20300;-75
2022/06/27 01:44:19;;;;;;;11.88;3.28;;;;;;;;;;6182756;28;20058;-75
2022/06/27 01:47:21;;;;;;;10.68;2.75;;;;;;;;;;6183257;28;20127;-75
2022/06/27 01:50:26;;;;;;;10.10;3.27;;;;;;;;;;6182200;28;20126;-75
2022/06/27 01:53:32;;;;;;;13.90;3.03;;;;;;;;;;6180140;28;20110;-75
2022/06/27 01:56:36;;;;;;;8.93;2.30;;;;;;;;;;6180239;28;20106;-75
2022/06/27 01:59:38;;;;;;;10.73;2.72;;;;;;;;;;6180567;28;20069;-76
2022/06/27 02:02:40;;;;;;;12.18;2.45;;;;;;;;;;6179925;28;20249;-75
2022/06/27 02:05:43;;;;;;;6.85;2.63;;;;;;;;;;6179497;28;20050;-75
2022/06/27 02:08:47;;;;;;;8.25;2.63;;;;;;;;;;6183086;28;20098;-75
2022/06/27 02:11:51;;;;;;;7.05;3.00;;;;;;;;;;6181174;28;20046;-74
2022/06/27 02:14:54;;;;;;;7.53;2.70;;;;;;;;;;6181301;28;20106;-75
2022/06/27 02:17:56;;;;;;;6.85;2.55;;;;;;;;;;6157676;28;20047;-75
2022/06/27 02:20:58;;;;;;;9.80;2.42;;;;;;;;;;6163606;28;20086;-75
2022/06/27 02:24:02;;;;;;;8.73;2.75;;;;;;;;;;6183003;28;20046;-75
2022/06/27 02:27:04;;;;;;;10.50;2.83;;;;;;;;;;6183357;28;20754;-75
2022/06/27 02:30:07;;;;;;;7.95;3.17;;;;;;;;;;6185836;28;20118;-74
2022/06/27 02:33:09;;;;;;;7.40;3.08;;;;;;;;;;6181734;28;20057;-75
2022/06/27 02:36:14;;;;;;;5.70;2.67;;;;;;;;;;6188452;28;20097;-75
2022/06/27 02:42:37;;;;;;;9.70;3.08;;;;;;;;;;6186350;28;20116;-75
2022/06/27 02:49:10;;;;;;;7.10;2.40;;;;;;;;;;6177481;28;20448;-75
2022/06/27 02:52:18;;;;;;;10.43;3.30;;;;;;;;;;6182579;28;20137;-75
2022/06/27 02:55:27;;;;;;;7.80;2.72;;;;;;;;;;6180519;28;20114;-75
2022/06/27 02:58:34;;;;;;;8.20;2.63;;;;;;;;;;6184249;28;20051;-75
2022/06/27 03:01:39;;;;;;;7.55;2.92;;;;;;;;;;6186492;28;20331;-75
2022/06/27 03:04:41;;;;;;;8.95;2.90;;;;;;;;;;6181857;28;20054;-75
2022/06/27 03:07:45;;;;;;;11.50;2.72;;;;;;;;;;6162595;28;20330;-75
2022/06/27 03:10:49;;;;;;;8.75;3.03;;;;;;;;;;6165731;28;20075;-75
2022/06/27 03:13:57;;;;;;;6.30;2.70;;;;;;;;;;6190236;28;20065;-75
2022/06/27 03:16:59;;;;;;;6.13;2.58;;;;;;;;;;6183840;28;20055;-75
2022/06/27 03:20:23;;;;;;;;;;;;;;;;;;;;;
2022/06/27 03:23:28;;;;;;;9.40;2.70;;;;;;;;;;6177813;28;20239;-75
2022/06/27 03:26:32;;;;;;;9.20;2.92;;;;;;;;;;6184475;28;20054;-75
2022/06/27 03:29:36;;;;;;;7.50;3.47;;;;;;;;;;6184079;28;20054;-75
2022/06/27 03:32:44;;;;;;;9.20;2.67;;;;;;;;;;6186445;28;20066;-75
2022/06/27 03:35:46;;;;;;;10.88;3.20;;;;;;;;;;6157711;28;20093;-75
2022/06/27 03:38:48;;;;;;;12.50;3.65;;;;;;;;;;6165283;28;20106;-74
2022/06/27 03:41:51;;;;;;;7.72;3.63;;;;;;;;;;6182181;28;20349;-75
2022/06/27 03:44:53;;;;;;;8.88;3.50;;;;;;;;;;6172833;28;20059;-75
2022/06/27 03:47:58;;;;;;;8.63;3.33;;;;;;;;;;6159335;28;20078;-75
2022/06/27 03:51:02;;;;;;;5.63;2.83;;;;;;;;;;6161731;28;20270;-75
2022/06/27 03:54:04;;;;;;;6.57;3.30;;;;;;;;;;6159130;28;20050;-75
2022/06/27 04:00:40;;;;;;;11.30;3.33;;;;;;;;;;6161498;28;20047;-75
2022/06/27 04:03:43;;;;;;;10.93;3.53;;;;;;;;;;6186476;28;20047;-75
2022/06/27 04:06:48;;;;;;;7.88;3.83;;;;;;;;;;6183157;28;20054;-75
2022/06/27 04:09:52;;;;;;;10.13;3.72;;;;;;;;;;6184851;28;20046;-75
2022/06/27 04:12:55;;;;;;;8.18;4.00;;;;;;;;;;6183230;28;20101;-75
2022/06/27 04:15:57;;;;;;;12.27;4.05;;;;;;;;;;6183239;28;20065;-75
2022/06/27 04:18:59;;;;;;;8.63;3.80;;;;;;;;;;6184685;28;20309;-75
2022/06/27 04:22:04;;;;;;;13.90;3.90;;;;;;;;;;6181372;28;20050;-75
2022/06/27 04:25:08;;;;;;;13.10;4.25;;;;;;;;;;6180506;28;20047;-75
2022/06/27 04:28:13;;;;;;;10.10;3.60;;;;;;;;;;6183156;28;20070;-75
2022/06/27 04:31:15;;;;;;;10.05;3.00;;;;;;;;;;6177390;28;20292;-75
2022/06/27 04:34:17;;;;;;;9.38;4.15;;;;;;;;;;6184716;28;20061;-74
2022/06/27 04:37:19;;;;;;;12.60;4.10;;;;;;;;;;6185432;28;20042;-76
2022/06/27 04:40:22;;;;;;;13.53;4.40;;;;;;;;;;6178284;28;20285;-75
2022/06/27 04:43:26;;;;;;;7.38;4.15;;;;;;;;;;6181942;28;20338;-75
2022/06/27 04:46:33;;;;;;;8.98;4.15;;;;;;;;;;6183793;28;20058;-73
2022/06/27 04:49:36;;;;;;;11.93;3.92;;;;;;;;;;6173187;28;20048;-75
2022/06/27 04:52:39;;;;;;;7.13;3.67;;;;;;;;;;6157289;28;20054;-75
2022/06/27 04:55:41;;;;;;;12.90;3.90;;;;;;;;;;6158089;28;20241;-75
2022/06/27 04:58:44;;;;;;;8.00;3.60;;;;;;;;;;6154407;28;20051;-75
2022/06/27 05:01:46;;;;;;;9.27;3.42;;;;;;;;;;6154974;28;20055;-75
2022/06/27 05:04:48;;;;;;;8.73;3.47;;;;;;;;;;6159289;28;20275;-75
2022/06/27 05:07:51;;;;;;;6.70;3.17;;;;;;;;;;6158320;28;20113;-75
2022/06/27 05:10:53;;;;;;;8.80;2.70;;;;;;;;;;6157155;28;20117;-75
2022/06/27 05:14:12;;;;;;;6.10;3.13;;;;;;;;;;6158933;28;20125;-75
2022/06/27 05:17:17;;;;;;;6.63;3.40;;;;;;;;;;6159064;28;20245;-75
2022/06/27 05:20:20;;;;;;;9.20;3.50;;;;;;;;;;6159615;28;20055;-75
2022/06/27 05:23:21;;;;;;;6.55;3.05;;;;;;;;;;6156034;28;20079;-75
2022/06/27 05:26:24;;;;;;;11.00;3.78;;;;;;;;;;6158152;28;20051;-75
2022/06/27 05:29:27;;;;;;;7.70;3.08;;;;;;;;;;6156165;28;20062;-75
2022/06/27 05:32:30;;;;;;;7.47;2.50;;;;;;;;;;6158082;28;20118;-75
2022/06/27 05:35:32;;;;;;;9.53;3.30;;;;;;;;;;6158053;28;20110;-75
2022/06/27 05:38:36;;;;;;;11.40;3.72;;;;;;;;;;6173546;28;20054;-75
2022/06/27 05:41:38;;;;;;;12.52;3.75;;;;;;;;;;6175478;28;20356;-75
2022/06/27 05:44:42;;;;;;;8.27;3.10;;;;;;;;;;6174172;28;20257;-75
2022/06/27 05:47:44;;;;;;;9.77;3.60;;;;;;;;;;6152399;28;20055;-75
2022/06/27 05:50:46;;;;;;;8.00;3.03;;;;;;;;;;6158579;28;20047;-77
2022/06/27 05:53:48;;;;;;;11.50;2.72;;;;;;;;;;6157989;28;20061;-75
2022/06/27 05:56:50;;;;;;;11.07;3.22;;;;;;;;;;6161491;28;20062;-74
2022/06/27 05:59:55;;;;;;;12.57;3.43;;;;;;;;;;6157937;28;21338;-75
2022/06/27 06:02:57;;;;;;;17.17;3.60;;;;;;;;;;6161369;28;20442;-75
2022/06/27 06:06:00;;;;;;;8.43;2.80;;;;;;;;;;6157086;28;20051;-74
2022/06/27 06:09:03;;;;;;;13.98;6.72;;;;;;;;;;6167137;28;20425;-74
2022/06/27 06:12:06;;;;;;;;;;;;;;;;;;6160572;28;20075;-74
2022/06/27 06:15:10;;;;;;;9.45;3.40;;;;;;;;;;6179709;28;19926;-73
2022/06/27 06:18:12;;;;;;;8.43;2.60;;;;;;;;;;6184645;28;20062;-74
2022/06/27 06:21:15;;;;;;;8.70;2.60;;;;;;;;;;6181066;28;20061;-76
2022/06/27 06:24:16;;;;;;;11.95;2.55;;;;;;;;;;6187504;28;20092;-78
2022/06/27 06:27:19;;;;;;;7.95;2.50;;;;;;;;;;6189405;28;20066;-76
2022/06/27 06:30:24;;;;;;;10.90;2.58;;;;;;;;;;6185469;28;20090;-76
2022/06/27 06:33:26;;;;;;;10.88;3.47;;;;;;;;;;6190292;28;20368;-75
2022/06/27 06:36:38;;;;;;;13.18;2.72;;;;;;;;;;6186317;28;20326;-79
2022/06/27 06:39:40;;;;;;;9.65;2.90;;;;;;;;;;6187118;28;20054;-81
2022/06/27 06:42:45;;;;;;;7.25;3.33;;;;;;;;;;6187552;28;20082;-81
2022/06/27 06:45:49;;;;;;;11.63;3.15;;;;;;;;;;6188769;28;20051;-77
2022/06/27 06:48:54;;;;;;;9.75;2.70;;;;;;;;;;6182641;28;20250;-78
2022/06/27 06:51:56;;;;;;;9.38;3.00;;;;;;;;;;6185575;28;20330;-78
2022/06/27 06:54:58;;;;;;;11.13;2.47;;;;;;;;;;6189048;28;20061;-78
2022/06/27 06:58:00;;;;;;;9.23;2.83;;;;;;;;;;6186235;28;20054;-77
2022/06/27 07:01:05;;;;;;;7.95;2.65;;;;;;;;;;6184966;28;20054;-77
2022/06/27 07:04:08;;;;;;;6.78;2.53;;;;;;;;;;6184966;28;20376;-77
2022/06/27 07:07:11;;;;;;;5.63;2.58;;;;;;;;;;6184389;28;20060;-76
2022/06/27 07:10:13;;;;;;;6.90;2.57;;;;;;;;;;6191132;28;20145;-78
2022/06/27 07:13:15;;;;;;;9.40;2.90;;;;;;;;;;6186229;28;20058;-78
2022/06/27 07:16:18;;;;;;;8.73;3.03;;;;;;;;;;6185378;28;20050;-78
2022/06/27 07:19:20;;;;;;;10.20;2.85;;;;;;;;;;6161274;28;20064;-76
2022/06/27 07:22:23;;;;;;;11.10;3.60;;;;;;;;;;6163689;28;20058;-79
2022/06/27 07:25:25;;;;;;;13.20;4.03;;;;;;;;;;6159311;28;20073;-77
2022/06/27 07:28:36;;;;;;;10.50;3.00;;;;;;;;;;6175007;28;20062;-78
2022/06/27 07:31:40;;;;;;;11.20;3.20;;;;;;;;;;6181067;28;20058;-78
2022/06/27 07:34:42;;;;;;;8.07;3.05;;;;;;;;;;6178930;28;20054;-78
2022/06/27 07:38:02;;;;;;;10.02;2.80;;;;;;;;;;6183235;28;20055;-77
2022/06/27 07:41:04;;;;;;;9.15;2.72;;;;;;;;;;6181993;28;20058;-77
2022/06/27 07:44:07;;;;;;;9.90;2.72;;;;;;;;;;6179737;28;20062;-80
2022/06/27 07:47:27;;;;;;;;;;;;;;;;;;6184476;28;20058;-79
2022/06/27 07:50:40;;;;;;;7.60;3.88;;;;;;;;;;6182049;28;19953;-79
2022/06/27 07:53:44;;;;;;;10.90;6.10;;;;;;;;;;6179515;28;20054;-80
2022/06/27 07:56:46;;;;;;;8.80;3.30;;;;;;;;;;6177578;28;20059;-80
2022/06/27 07:59:51;;;;;;;7.18;2.80;;;;;;;;;;6183367;28;20047;-80
2022/06/27 08:03:36;;;;;;;9.60;2.65;;;;;;;;;;6182113;28;20058;-79
2022/06/27 08:06:31;;;;;;;9.27;3.47;;;;;;;;;;6183199;28;20148;-79
2022/06/27 08:09:32;;;;;;;12.40;3.45;;;;;;;;;;6181259;28;20117;-79
2022/06/27 08:12:35;;;;;;;6.37;2.73;;;;;;;;;;6179851;28;20297;-80
2022/06/27 08:15:37;;;;;;;9.32;2.85;;;;;;;;;;6185598;28;20062;-80
2022/06/27 08:18:44;;;;;;;12.48;3.35;;;;;;;;;;6182813;28;20278;-83
2022/06/27 08:21:48;;;;;;;14.38;3.65;;;;;;;;;;6181155;28;20062;-80
2022/06/27 08:28:15;;;;;;;7.35;2.45;;;;;;;;;;6172421;28;20057;-81
2022/06/27 08:31:18;;;;;;;8.80;2.60;;;;;;;;;;6185199;28;20089;-80
2022/06/27 08:50:03;;;;;;;8.25;2.35;;;;;;;;;;6102432;29;20051;-82
2022/06/27 08:53:06;;;;;;;7.07;2.63;;;;;;;;;;6119154;28;20118;-82
2022/06/27 09:43:52;;;;;;;13.60;3.00;;;;;;;;;;5870058;30;20071;-84
2022/06/27 09:54:08;;;;;;;8.52;2.90;;;;;;;;;;5920564;30;20051;-85
2022/06/27 10:01:24;;;;;;;8.15;2.63;;;;;;;;;;6004215;29;20059;-85
2022/06/27 10:04:30;;;;;;;9.18;3.15;;;;;;;;;;6081114;29;20052;-84
2022/06/27 10:07:56;;;;;;;8.85;2.92;;;;;;;;;;6113778;28;20425;-83
2022/06/27 10:11:09;;;;;;;5.63;2.60;;;;;;;;;;6206138;28;20110;-82
2022/06/27 10:14:16;;;;;;;6.28;2.53;;;;;;;;;;6255769;28;20316;-83
2022/06/27 10:17:37;;;;;;;6.22;2.38;;;;;;;;;;6250037;28;20060;-83
2022/06/27 10:20:50;;;;;;;;;;;;;;;;;;;;;
2022/06/27 10:24:25;;;;;;;6.18;2.60;;;;;;;;;;6255310;28;20118;-81
2022/06/27 10:30:53;;;;;;;9.10;2.70;;;;;;;;;;6251035;28;20112;-80
2022/06/27 10:33:56;;;;;;;6.90;2.95;;;;;;;;;;6247938;28;20045;-81
2022/06/27 10:37:31;;;;;;;6.60;2.53;;;;;;;;;;6246359;28;20123;-80
2022/06/27 10:40:57;;;;;;;6.28;2.75;;;;;;;;;;6250045;28;20049;-77
2022/06/27 10:47:38;;;;;;;9.50;2.97;;;;;;;;;;6227426;28;20108;-79
2022/06/27 10:51:13;;;;;;;8.88;3.03;;;;;;;;;;6258939;28;20062;-80
2022/06/27 10:54:18;;;;;;;11.48;3.17;;;;;;;;;;6259772;28;20282;-80
2022/06/27 10:57:56;;;;;;;5.18;2.70;;;;;;;;;;6252841;28;20047;-80
2022/06/27 11:01:15;;;;;;;7.93;2.63;;;;;;;;;;6243957;28;20094;-76
2022/06/27 11:04:25;;;;;;;21.70;12.20;;;;;;;;;;6260417;28;20053;-76
2022/06/27 11:07:27;;;;;;;18.67;10.00;;;;;;;;;;6260874;28;20061;-76
2022/06/27 11:10:31;;;;;;;16.70;9.50;;;;;;;;;;6264489;28;20045;-76
2022/06/27 11:13:41;;;;;;;20.08;13.48;;;;;;;;;;6260732;28;20060;-75
2022/06/27 11:16:43;;;;;;;15.90;8.57;;;;;;;;;;6255290;28;20311;-75
2022/06/27 11:23:03;;;;;;;8.90;4.28;;;;;;;;;;6257620;28;19925;-76
2022/06/27 11:26:07;;;;;;;25.05;14.77;;;;;;;;;;6258210;28;20049;-75
2022/06/27 11:32:36;;;;;;;11.73;5.68;;;;;;;;;;6263331;28;20053;-75
2022/06/27 11:35:37;;;;;;;12.88;4.82;;;;;;;;;;6258940;28;20053;-75
2022/06/27 11:38:43;;;;;;;;;;;;;;;;;;6263260;28;20049;-76
2022/06/27 11:41:49;;;;;;;75.03;49.03;;;;;;;;;;6261461;28;20941;-75
2022/06/27 11:45:08;;;;;;;21.85;9.18;;;;;;;;;;6260195;28;20060;-76
2022/06/27 11:48:14;;;;;;;13.63;4.57;;;;;;;;;;6262509;28;20061;-75
2022/06/27 11:51:24;;;;;;;18.33;11.18;;;;;;;;;;6262937;28;20048;-75
2022/06/27 11:54:26;;;;;;;9.63;5.32;;;;;;;;;;6261521;28;20173;-75
2022/06/27 11:57:32;;;;;;;9.85;5.40;;;;;;;;;;6257691;28;20052;-74
2022/06/27 12:00:35;;;;;;;7.25;2.78;;;;;;;;;;6256613;28;20337;-76
2022/06/27 12:03:37;;;;;;;8.98;3.05;;;;;;;;;;6263283;28;20104;-75
2022/06/27 12:06:45;;;;;;;5.95;2.58;;;;;;;;;;6265029;28;20045;-76
2022/06/27 12:09:49;;;;;;;8.10;2.85;;;;;;;;;;6261315;28;20060;-75
2022/06/27 12:12:58;;;;;;;7.05;2.88;;;;;;;;;;6262477;28;20279;-76
2022/06/27 12:16:01;;;;;;;9.45;2.80;;;;;;;;;;6256384;28;20057;-76
2022/06/27 12:19:10;;;;;;;7.70;2.63;;;;;;;;;;6258463;28;20131;-76
2022/06/27 12:22:17;;;;;;;9.30;2.50;;;;;;;;;;6259737;28;21405;-76
2022/06/27 12:25:19;;;;;;;11.18;2.72;;;;;;;;;;6260250;28;20060;-77
2022/06/27 12:28:23;;;;;;;7.47;2.70;;;;;;;;;;6259943;28;20414;-77
2022/06/27 12:31:25;;;;;;;8.23;2.67;;;;;;;;;;6258484;28;20054;-76
2022/06/27 12:34:28;;;;;;;10.32;2.90;;;;;;;;;;6257186;28;20049;-76
2022/06/27 12:37:29;;;;;;;7.57;2.63;;;;;;;;;;6260713;28;20091;-77
2022/06/27 12:40:31;;;;;;;7.63;2.72;;;;;;;;;;6257997;28;20071;-77
2022/06/27 12:43:34;;;;;;;6.35;2.47;;;;;;;;;;6256055;28;20057;-76
2022/06/27 12:46:36;;;;;;;9.80;3.10;;;;;;;;;;6263453;28;20053;-76
2022/06/27 12:49:39;;;;;;;9.02;2.53;;;;;;;;;;6254870;28;20061;-76
2022/06/27 12:52:41;;;;;;;9.00;2.90;;;;;;;;;;6259563;28;20045;-76
2022/06/27 12:55:43;;;;;;;7.25;2.45;;;;;;;;;;6256777;28;20049;-76
2022/06/27 12:58:46;;;;;;;7.70;2.53;;;;;;;;;;6257687;28;20075;-76
2022/06/27 13:01:48;;;;;;;7.28;2.15;;;;;;;;;;6258427;28;20103;-76
2022/06/27 13:04:49;;;;;;;11.35;2.42;;;;;;;;;;6260268;28;20053;-76
2022/06/27 13:07:51;;;;;;;7.25;2.88;;;;;;;;;;6259893;28;20403;-76
2022/06/27 13:10:53;;;;;;;7.57;2.78;;;;;;;;;;6255335;28;20064;-77
2022/06/27 13:13:56;;;;;;;8.32;2.58;;;;;;;;;;6259648;28;20052;-76
2022/06/27 13:16:57;;;;;;;6.88;2.45;;;;;;;;;;6253916;28;20057;-76
2022/06/27 13:19:59;;;;;;;10.82;2.70;;;;;;;;;;6257212;28;20049;-76
2022/06/27 13:23:02;;;;;;;5.25;2.13;;;;;;;;;;6257234;28;20076;-75
2022/06/27 13:26:04;;;;;;;9.98;2.72;;;;;;;;;;6257468;28;20059;-77
2022/06/27 13:29:07;;;;;;;10.32;3.13;;;;;;;;;;6255116;28;20049;-77
2022/06/27 13:32:09;;;;;;;10.27;2.40;;;;;;;;;;6259177;28;20076;-76
2022/06/27 13:35:11;;;;;;;7.03;2.13;;;;;;;;;;6253781;28;20045;-77
2022/06/27 13:38:13;;;;;;;9.57;2.85;;;;;;;;;;6255982;28;20060;-77
2022/06/27 13:41:14;;;;;;;8.38;2.55;;;;;;;;;;6261893;28;20052;-76
2022/06/27 13:44:17;;;;;;;6.40;2.40;;;;;;;;;;6255247;28;20045;-76
2022/06/27 13:47:19;;;;;;;17.65;10.70;;;;;;;;;;6254964;28;20046;-83
2022/06/27 13:50:21;;;;;;;30.13;19.33;;;;;;;;;;6261667;28;20057;-84
2022/06/27 13:53:23;;;;;;;11.15;3.38;;;;;;;;;;6259487;28;20049;-76
2022/06/27 13:56:24;;;;;;;8.45;2.95;;;;;;;;;;6254663;28;20356;-77
2022/06/27 13:59:27;;;;;;;6.78;2.45;;;;;;;;;;6258997;28;20057;-77
2022/06/27 14:02:29;;;;;;;12.23;3.08;;;;;;;;;;6262465;28;20344;-76
2022/06/27 14:05:32;;;;;;;12.70;2.97;;;;;;;;;;6259741;28;20041;-76
2022/06/27 14:08:33;;;;;;;9.93;2.88;;;;;;;;;;6255851;28;20059;-76
2022/06/27 14:11:36;;;;;;;10.88;2.53;;;;;;;;;;6261746;28;20375;-77
2022/06/27 14:14:39;;;;;;;8.93;2.20;;;;;;;;;;6257106;28;20344;-76
2022/06/27 14:17:41;;;;;;;7.07;2.28;;;;;;;;;;6257261;28;20206;-76
2022/06/27 14:20:42;;;;;;;9.00;2.78;;;;;;;;;;6257368;28;20045;-76
2022/06/27 14:23:44;;;;;;;11.13;2.60;;;;;;;;;;6260231;28;20079;-76
2022/06/27 14:26:46;;;;;;;8.68;2.83;;;;;;;;;;6260556;28;20060;-77
2022/06/27 14:29:48;;;;;;;;;;;;;;;;;;6266109;28;20061;-76
2022/06/27 14:32:50;;;;;;;10.30;2.22;;;;;;;;;;6263462;28;19967;-76
2022/06/27 14:35:52;;;;;;;10.95;2.38;;;;;;;;;;6260488;28;20364;-76
2022/06/27 14:38:54;;;;;;;11.77;2.78;;;;;;;;;;6261768;28;20057;-76
2022/06/27 14:41:55;;;;;;;11.75;3.22;;;;;;;;;;6264516;28;20049;-76
2022/06/27 14:44:59;;;;;;;10.80;3.08;;;;;;;;;;6264839;28;20116;-76
2022/06/27 14:48:00;;;;;;;12.85;3.50;;;;;;;;;;6265535;28;20271;-76
2022/06/27 14:51:02;;;;;;;14.50;3.75;;;;;;;;;;6263988;28;20042;-76
2022/06/27 14:54:04;;;;;;;15.68;4.13;;;;;;;;;;6264797;28;20107;-77
2022/06/27 14:57:06;;;;;;;19.27;3.47;;;;;;;;;;6257272;28;20051;-75
2022/06/27 15:00:10;;;;;;;15.02;3.95;;;;;;;;;;6253315;28;20053;-77
2022/06/27 15:03:12;;;;;;;16.83;4.32;;;;;;;;;;6251374;28;20065;-75
2022/06/27 15:06:14;;;;;;;13.80;3.80;;;;;;;;;;6250485;28;20079;-74
2022/06/27 15:09:16;;;;;;;11.35;3.60;;;;;;;;;;6254389;28;20114;-78
2022/06/27 15:12:18;;;;;;;12.95;4.00;;;;;;;;;;6251711;28;20049;-75
2022/06/27 15:15:21;;;;;;;14.75;4.30;;;;;;;;;;6247857;28;20041;-77
2022/06/27 15:18:23;;;;;;;16.23;4.70;;;;;;;;;;6251040;28;20069;-77
2022/06/27 15:21:25;;;;;;;17.27;3.67;;;;;;;;;;6261555;28;20066;-75
2022/06/27 15:24:27;;;;;;;12.82;4.15;;;;;;;;;;6258730;28;20122;-83
2022/06/27 15:27:29;;;;;;;20.30;8.23;;;;;;;;;;6259431;28;20049;-78
2022/06/27 15:30:34;;;;;;;12.20;3.63;;;;;;;;;;6267394;28;20348;-79
2022/06/27 15:33:35;;;;;;;18.95;3.53;;;;;;;;;;6260750;28;20128;-77
2022/06/27 15:36:37;;;;;;;15.10;4.03;;;;;;;;;;6262518;28;20056;-76
2022/06/27 15:39:39;;;;;;;14.70;3.42;;;;;;;;;;6266746;28;20037;-76
2022/06/27 15:42:41;;;;;;;15.02;4.72;;;;;;;;;;6258957;28;20053;-76
2022/06/27 15:45:44;;;;;;;16.33;4.10;;;;;;;;;;6262108;28;20267;-76
2022/06/27 15:48:46;;;;;;;15.50;4.03;;;;;;;;;;6263260;28;20294;-77
2022/06/27 15:51:48;;;;;;;;;;;;;;;;;;6260884;28;20324;-77
2022/06/27 15:54:50;;;;;;;13.60;3.50;;;;;;;;;;6259247;28;19984;-78
2022/06/27 15:57:51;;;;;;;16.23;3.70;;;;;;;;;;6257656;28;20063;-77
2022/06/27 16:00:55;;;;;;;15.98;3.63;;;;;;;;;;6260185;28;20156;-77
2022/06/27 16:03:57;;;;;;;19.60;3.67;;;;;;;;;;6259532;28;20142;-77
2022/06/27 16:06:59;;;;;;;13.63;3.50;;;;;;;;;;6255084;28;20045;-76
2022/06/27 16:10:01;;;;;;;16.30;3.85;;;;;;;;;;6256837;28;20053;-77
2022/06/27 16:13:03;;;;;;;13.25;3.10;;;;;;;;;;6261908;28;20058;-77
2022/06/27 16:16:06;;;;;;;20.52;3.78;;;;;;;;;;6256429;28;20054;-77
2022/06/27 16:19:08;;;;;;;13.00;3.88;;;;;;;;;;6260203;28;20045;-76
2022/06/27 16:22:09;;;;;;;12.27;3.33;;;;;;;;;;6263414;28;20295;-78
2022/06/27 16:25:14;;;;;;;15.70;3.38;;;;;;;;;;6260318;28;20052;-78
2022/06/27 16:28:16;;;;;;;13.55;3.50;;;;;;;;;;6259578;28;20056;-78
2022/06/27 16:34:38;;;;;;;12.98;3.13;;;;;;;;;;6258693;28;20049;-78
2022/06/27 16:37:40;;;;;;;12.15;4.03;;;;;;;;;;6256739;28;20053;-80
2022/06/27 16:40:42;;;;;;;19.38;3.65;;;;;;;;;;6253035;28;20049;-76
2022/06/27 16:43:44;;;;;;;16.40;3.58;;;;;;;;;;6251588;28;20062;-76
2022/06/27 16:46:47;;;;;;;18.10;3.50;;;;;;;;;;6248620;28;20057;-77
2022/06/27 16:49:49;;;;;;;14.43;3.72;;;;;;;;;;6254362;28;20065;-77
2022/06/27 16:52:51;;;;;;;15.38;3.67;;;;;;;;;;6249179;28;20057;-77
2022/06/27 16:55:52;;;;;;;14.20;3.47;;;;;;;;;;6259950;28;20095;-77
2022/06/27 16:58:54;;;;;;;19.25;3.78;;;;;;;;;;6253645;28;20072;-77
2022/06/27 17:01:57;;;;;;;15.32;3.47;;;;;;;;;;6260930;28;20053;-77
2022/06/27 17:04:59;;;;;;;13.80;3.08;;;;;;;;;;6252957;28;20041;-78
2022/06/27 17:08:01;;;;;;;21.75;4.25;;;;;;;;;;6257302;28;20069;-76
2022/06/27 17:11:03;;;;;;;12.02;4.10;;;;;;;;;;6259769;28;20049;-76
2022/06/27 17:14:04;;;;;;;13.10;3.50;;;;;;;;;;6261856;28;20095;-77
2022/06/27 17:17:08;;;;;;;14.73;3.90;;;;;;;;;;6258507;28;20269;-77
2022/06/27 17:20:11;;;;;;;12.70;3.60;;;;;;;;;;6262602;28;20399;-76
2022/06/27 17:23:13;;;;;;;14.10;3.22;;;;;;;;;;6257500;28;20328;-76
2022/06/27 17:26:14;;;;;;;14.35;3.85;;;;;;;;;;6260199;28;20053;-76
2022/06/27 17:29:16;;;;;;;10.60;3.60;;;;;;;;;;6262480;28;20053;-77
2022/06/27 17:32:19;;;;;;;13.27;4.07;;;;;;;;;;6254293;28;20057;-88
2022/06/27 17:35:21;;;;;;;16.45;3.90;;;;;;;;;;6265875;28;20041;-86
2022/06/27 17:38:23;;;;;;;63.27;35.67;;;;;;;;;;6259323;28;20091;-87
2022/06/27 17:41:25;;;;;;;16.15;5.13;;;;;;;;;;6250334;28;20646;-85
2022/06/27 17:44:26;;;;;;;14.77;3.63;;;;;;;;;;6258683;28;20060;-87
2022/06/27 17:47:30;;;;;;;16.35;4.78;;;;;;;;;;6251902;28;20052;-84
2022/06/27 17:50:32;;;;;;;16.33;6.80;;;;;;;;;;6272900;28;20052;-87
2022/06/27 17:53:33;;;;;;;54.47;29.17;;;;;;;;;;6269760;28;20300;-85
2022/06/27 17:56:35;;;;;;;14.70;5.03;;;;;;;;;;6267309;28;20104;-88
2022/06/27 17:59:37;;;;;;;358.33;224.85;;;;;;;;;;6270361;28;20076;-86
2022/06/27 18:02:42;;;;;;;61.13;36.80;;;;;;;;;;6266395;28;20063;-87
2022/06/27 18:05:45;;;;;;;18.13;5.35;;;;;;;;;;6264491;28;20075;-88
2022/06/27 18:08:47;;;;;;;19.55;4.68;;;;;;;;;;6268266;28;20045;-87
2022/06/27 18:11:49;;;;;;;19.17;4.50;;;;;;;;;;6268464;28;20061;-86
2022/06/27 18:14:51;;;;;;;16.45;4.07;;;;;;;;;;6265726;28;20057;-86
2022/06/27 18:17:54;;;;;;;13.43;3.88;;;;;;;;;;6268676;28;20049;-86
2022/06/27 18:20:56;;;;;;;18.90;4.15;;;;;;;;;;6274376;28;20055;-87
2022/06/27 18:23:57;;;;;;;20.45;7.05;;;;;;;;;;6264391;28;20057;-76
2022/06/27 18:26:59;;;;;;;15.37;3.63;;;;;;;;;;6269836;28;20056;-76
2022/06/27 18:30:01;;;;;;;16.73;3.72;;;;;;;;;;6266730;28;20467;-79
2022/06/27 18:33:04;;;;;;;10.65;3.53;;;;;;;;;;6267004;28;20055;-77
2022/06/27 18:36:06;;;;;;;12.32;3.60;;;;;;;;;;6270983;28;20049;-78
2022/06/27 18:39:08;;;;;;;17.58;4.05;;;;;;;;;;6270060;28;20044;-78
2022/06/27 18:42:10;;;;;;;15.43;3.63;;;;;;;;;;6275700;28;20057;-78
2022/06/27 18:45:12;;;;;;;16.38;3.85;;;;;;;;;;6262627;28;20049;-76
2022/06/27 18:48:16;;;;;;;17.77;4.20;;;;;;;;;;6266538;28;20108;-75
2022/06/27 18:51:18;;;;;;;12.85;3.47;;;;;;;;;;6267551;28;20053;-76
2022/06/27 18:54:20;;;;;;;16.80;3.20;;;;;;;;;;6265408;28;20132;-79
2022/06/27 18:57:22;;;;;;;16.55;3.88;;;;;;;;;;6264830;28;20060;-77
2022/06/27 19:00:24;;;;;;;17.10;3.67;;;;;;;;;;6264588;28;20044;-77
2022/06/27 19:03:27;;;;;;;14.17;4.40;;;;;;;;;;6263893;28;20319;-76
2022/06/27 19:06:29;;;;;;;19.58;4.70;;;;;;;;;;6263904;28;20131;-76
2022/06/27 19:09:30;;;;;;;19.38;3.53;;;;;;;;;;6266593;28;20282;-76
2022/06/27 19:12:32;;;;;;;14.32;3.70;;;;;;;;;;6265173;28;20129;-77
2022/06/27 19:15:34;;;;;;;14.10;4.07;;;;;;;;;;6253430;28;20049;-77
2022/06/27 19:18:37;;;;;;;19.90;4.37;;;;;;;;;;6260015;28;20069;-76
2022/06/27 19:21:39;;;;;;;20.30;3.58;;;;;;;;;;6259771;28;20072;-75
2022/06/27 19:24:41;;;;;;;17.63;3.70;;;;;;;;;;6259532;28;20088;-76
2022/06/27 19:27:43;;;;;;;14.88;4.00;;;;;;;;;;6263232;28;20459;-76
2022/06/27 19:30:45;;;;;;;14.18;4.00;;;;;;;;;;6258014;28;20075;-75
2022/06/27 19:33:49;;;;;;;17.10;4.30;;;;;;;;;;6263583;28;20055;-76
2022/06/27 19:36:50;;;;;;;14.85;3.92;;;;;;;;;;6260454;28;20387;-75
2022/06/27 19:39:53;;;;;;;19.20;3.80;;;;;;;;;;6255166;28;20072;-76
2022/06/27 19:42:55;;;;;;;14.90;3.83;;;;;;;;;;6258362;28;20067;-76
2022/06/27 19:45:57;;;;;;;13.00;4.03;;;;;;;;;;6262391;28;20078;-76
2022/06/27 19:49:00;;;;;;;;;;;;;;;;;;6262601;28;20107;-76
2022/06/27 19:52:03;;;;;;;13.45;4.38;;;;;;;;;;6261720;28;19988;-76
2022/06/27 19:55:06;;;;;;;14.45;3.33;;;;;;;;;;6261085;28;20091;-75
2022/06/27 19:58:08;;;;;;;15.38;3.45;;;;;;;;;;6256279;28;20057;-76
2022/06/27 20:01:10;;;;;;;14.57;3.58;;;;;;;;;;6257234;28;20046;-75